Language selection

My Weather Profile Weather Topics  | 

Strait of Georgia - south of Nanaimo: Past 24 Hour Conditions

 

Halibut Bank - 46146

06:00 PM PST 30 November 2022Buoy position: 49.34N 123.72W
Disclaimer

This table is a summary of hourly weather conditions for the past 24 hours.
Please note that these observations might not always be representative of weather conditions over their associated marine area.

Date / Time
(PST)
Wind(knots) Wave height(m) Wave period(s) Pressure(kPa) Air tempC) Water tempC)
30 November 2022
18:00 NNE 6 gust 8 0.1 6.0 100.0 12 8
17:00 NE 2 gust 4 0.1 6.4 100.0 12 8
16:00 E 2 gust 3 0.2 3.3 100.0 12 8
15:00 calm 0.2 3.6 100.0 12 8
14:00 NW 3 gust 5 0.2 2.8 99.9 12 8
13:00 WNW 4 gust 8 0.3 3.7 99.9 12 8
12:00 WNW 5 gust 8 0.4 3.8 99.9 12 9
11:00 W 8 gust 10 0.4 3.7 99.9 12 9
10:00 W 11 gust 14 0.6 4.3 99.9 12 9
9:00 NW 12 gust 15 0.8 4.1 99.8 12 9
8:00 NW 18 gust 20 0.8 3.1 99.6 12 9
7:00 WSW 16 gust 19 0.9 4.9 99.4 13 9
6:00 SSW 12 gust 17 1.1 5.3 99.3 13 9
5:00 SSE 19 gust 25 1.3 5.4 99.2 13 9
4:00 ESE 23 gust 29 1.6 5.6 99.1 12 9
3:00 SSE 22 gust 26 1.8 5.8 99.2 13 9
2:00 SSE 23 gust 28 1.8 5.7 99.2 13 9
1:00 ESE 24 gust 30 1.9 6.6 99.3 12 9
0:00 ESE 25 gust 29 2.1 6.6 99.3 12 9
29 November 2022
23:00 ESE 28 gust 33 2.0 6.6 99.3 12 9
22:00 ESE 30 gust 37 1.9 5.3 99.4 12 9
21:00 ESE 32 gust 38 2.0 5.6 99.4 12 9
20:00 ESE 33 gust 39 2.0 5.2 99.5 12 9
19:00 ESE 31 gust 38 2.0 5.2 99.6 11 9
18:00 ESE 31 gust 37 1.9 4.9 99.8 11 9

Zoom-in to make a selection

Map of Pacific - Georgia Basin marine weather areas Sentry Shoal - 46131 Halibut Bank - 46146 La Perouse Bank - 46206 Georgia Strait - 46303 English Bay - 46304 Discovery Island Esquimalt Harbour Kelp Reefs Malahat Race Rocks Lightstation Saturna Island Sheringham Point University of Victoria Victoria Gonzales Victoria Int'l Airport Ballenas Islands Campbell River Airport Comox Airport Entrance Island Fanny Island Nanaimo Airport Sisters Islets Estevan Point Port Alberni Tofino Airport Grief Point Howe Sound - Pam Rocks Powell River Airport Sechelt Squamish Airport Point Atkinson Sand Heads Lightstation Tsawwassen Ferry Terminal Vancouver Int'l Airport Vancouver Harbour West Vancouver
Legend:
buoy Buoy
land station Land Station

Pacific - Georgia Basin Area

Another Region

What we are doing

Date modified: